createdAt,value
2017-09-28T00:00:56.726Z,101075.53
2017-09-28T00:03:24.126Z,101075.99
2017-09-28T00:05:51.524Z,101076.88
2017-09-28T00:08:18.930Z,101071.20
2017-09-28T00:10:46.335Z,101070.10
2017-09-28T00:13:13.735Z,101064.13
2017-09-28T00:15:41.133Z,101069.97
2017-09-28T00:18:08.532Z,101065.61
2017-09-28T00:20:35.926Z,101063.25
2017-09-28T00:23:03.334Z,101061.53
2017-09-28T00:25:30.733Z,101061.41
2017-09-28T00:27:58.127Z,101057.07
2017-09-28T00:30:25.527Z,101060.31
2017-09-28T00:32:52.926Z,101058.08
2017-09-28T00:35:20.324Z,101057.66
2017-09-28T00:37:47.718Z,101059.55
2017-09-28T00:40:15.123Z,101062.66
2017-09-28T00:42:42.523Z,101059.91
2017-09-28T00:45:09.947Z,101059.36
2017-09-28T00:47:37.355Z,101067.64
2017-09-28T00:50:04.750Z,101066.63
2017-09-28T00:52:32.154Z,101067.17
2017-09-28T00:54:59.566Z,101072.25
2017-09-28T00:57:26.969Z,101060.75
2017-09-28T00:59:54.362Z,101056.42
2017-09-28T01:02:21.779Z,101056.21
2017-09-28T01:04:49.170Z,101056.03
2017-09-28T01:07:16.583Z,101047.94
2017-09-28T01:09:43.984Z,101050.70
2017-09-28T01:12:11.374Z,101043.55
2017-09-28T01:14:38.779Z,101049.47
2017-09-28T01:17:06.170Z,101042.42
2017-09-28T01:19:33.578Z,101040.87
2017-09-28T01:22:00.984Z,101033.64
2017-09-28T01:24:28.386Z,101030.91
2017-09-28T01:26:55.783Z,101030.78
2017-09-28T01:29:23.191Z,101031.67
2017-09-28T01:31:50.589Z,101037.59
2017-09-28T01:34:17.987Z,101034.24
2017-09-28T01:36:45.390Z,101039.56
2017-09-28T01:39:12.787Z,101032.64
2017-09-28T01:41:40.196Z,101034.19
2017-09-28T01:44:07.601Z,101030.66
2017-09-28T01:46:35.151Z,101030.53
2017-09-28T01:49:02.550Z,101025.97
2017-09-28T01:51:29.947Z,101022.47
2017-09-28T01:53:57.343Z,101021.13
2017-09-28T01:56:24.737Z,101026.59
2017-09-28T01:58:52.139Z,101020.54
2017-09-28T02:01:19.537Z,101017.97
2017-09-28T02:03:46.939Z,101019.30
2017-09-28T02:06:14.336Z,101017.42
2017-09-28T02:08:41.749Z,101013.13
2017-09-28T02:11:09.138Z,101011.96
2017-09-28T02:13:36.534Z,101005.73
2017-09-28T02:16:04.394Z,101011.17
2017-09-28T02:18:31.795Z,101016.92
2017-09-28T02:20:59.198Z,101012.09
2017-09-28T02:23:26.599Z,101012.10
2017-09-28T02:25:53.994Z,101009.79
2017-09-28T02:28:21.395Z,101003.99
2017-09-28T02:30:48.811Z,101009.99
2017-09-28T02:33:16.206Z,101012.69
2017-09-28T02:35:43.610Z,101013.94
2017-09-28T02:38:11.011Z,101020.04
2017-09-28T02:40:38.406Z,101022.22
2017-09-28T02:43:05.847Z,101020.25
2017-09-28T02:45:33.237Z,101022.81
2017-09-28T02:48:00.650Z,101024.87
2017-09-28T02:50:28.035Z,101026.84
2017-09-28T02:52:55.450Z,101024.16
2017-09-28T02:55:22.918Z,101025.92
2017-09-28T02:57:50.313Z,101030.88
2017-09-28T03:00:17.731Z,101025.83
2017-09-28T03:02:45.127Z,101035.16
2017-09-28T03:05:12.526Z,101034.31
2017-09-28T03:07:39.927Z,101034.41
2017-09-28T03:10:07.340Z,101035.45
2017-09-28T03:12:34.747Z,101028.23
2017-09-28T03:15:02.163Z,101027.19
2017-09-28T03:17:29.557Z,101025.62
2017-09-28T03:19:56.958Z,101027.90
2017-09-28T03:22:24.358Z,101027.27
2017-09-28T03:24:51.759Z,101022.94
2017-09-28T03:27:19.163Z,101022.72
2017-09-28T03:29:46.561Z,101026.63
2017-09-28T03:32:13.967Z,101027.22
2017-09-28T03:34:41.374Z,101025.80
2017-09-28T03:37:08.792Z,101028.91
2017-09-28T03:39:36.188Z,101029.25
2017-09-28T03:42:03.582Z,101023.78
2017-09-28T03:44:30.987Z,101026.00
2017-09-28T03:46:58.386Z,101021.80
2017-09-28T03:49:25.789Z,101018.31
2017-09-28T03:51:53.184Z,101009.48
2017-09-28T03:54:20.582Z,101012.98
2017-09-28T03:56:47.994Z,101007.26
2017-09-28T03:59:15.407Z,101010.29
2017-09-28T04:01:42.806Z,101017.22
2017-09-28T04:04:10.200Z,101023.78
2017-09-28T04:06:37.614Z,101016.77
2017-09-28T04:09:05.012Z,101016.55
2017-09-28T04:11:32.406Z,101015.38
2017-09-28T04:13:59.803Z,101019.95
2017-09-28T04:16:27.206Z,101014.16
2017-09-28T04:18:54.607Z,101010.12
2017-09-28T04:21:22.002Z,101018.31
2017-09-28T04:23:49.463Z,101022.18
2017-09-28T04:26:16.834Z,101023.53
2017-09-28T04:28:44.259Z,101018.78
2017-09-28T04:31:11.638Z,101018.99
2017-09-28T04:33:39.054Z,101017.73
2017-09-28T04:36:06.450Z,101016.80
2017-09-28T04:38:33.838Z,101016.42
2017-09-28T04:41:01.259Z,101019.95
2017-09-28T04:43:28.652Z,101019.20
2017-09-28T04:45:56.064Z,101017.90
2017-09-28T04:48:23.455Z,101011.80
2017-09-28T04:50:51.135Z,101009.52
2017-09-28T04:53:18.534Z,101007.20
2017-09-28T04:55:45.950Z,101012.34
2017-09-28T04:58:13.346Z,101010.56
2017-09-28T05:00:40.746Z,101012.34
2017-09-28T05:03:08.148Z,101013.17
2017-09-28T05:05:35.542Z,101014.81
2017-09-28T05:08:02.954Z,101009.09
2017-09-28T05:10:30.351Z,101012.95
2017-09-28T05:12:57.750Z,101006.57
2017-09-28T05:15:25.155Z,101017.41
2017-09-28T05:17:52.563Z,101010.14
2017-09-28T05:20:19.954Z,101012.59
2017-09-28T05:22:47.351Z,101009.30
2017-09-28T05:25:14.757Z,101010.66
2017-09-28T05:27:42.165Z,101011.80
2017-09-28T05:30:09.571Z,101016.46
2017-09-28T05:32:36.972Z,101014.66
2017-09-28T05:35:04.380Z,101019.82
2017-09-28T05:37:31.770Z,101019.16
2017-09-28T05:39:59.237Z,101021.46
2017-09-28T05:42:26.636Z,101029.92
2017-09-28T05:44:54.029Z,101017.38
2017-09-28T05:47:21.448Z,101014.94
2017-09-28T05:49:48.839Z,101013.05
2017-09-28T05:52:16.243Z,101013.84
2017-09-28T05:54:43.645Z,101020.44
2017-09-28T05:57:11.046Z,101017.80
2017-09-28T05:59:38.455Z,101018.68
2017-09-28T06:02:05.870Z,101019.31
2017-09-28T06:04:33.270Z,101022.25
2017-09-28T06:07:00.662Z,101020.66
2017-09-28T06:09:28.063Z,101025.75
2017-09-28T06:11:55.458Z,101027.39
2017-09-28T06:14:22.861Z,101034.95
2017-09-28T06:16:50.260Z,101037.89
2017-09-28T06:19:17.655Z,101043.27
2017-09-28T06:21:45.054Z,101039.11
2017-09-28T06:24:12.470Z,101043.94
2017-09-28T06:26:39.886Z,101046.25
2017-09-28T06:29:07.278Z,101047.67
2017-09-28T06:31:34.678Z,101051.31
2017-09-28T06:34:02.077Z,101050.38
2017-09-28T06:36:29.475Z,101048.55
2017-09-28T06:38:56.870Z,101053.41
2017-09-28T06:41:24.289Z,101059.04
2017-09-28T06:43:51.683Z,101060.99
2017-09-28T06:46:19.081Z,101053.42
2017-09-28T06:48:46.524Z,101054.71
2017-09-28T06:51:13.880Z,101059.12
2017-09-28T06:53:41.281Z,101058.83
2017-09-28T06:56:08.674Z,101061.23
2017-09-28T06:58:36.099Z,101059.01
2017-09-28T07:01:03.492Z,101058.72
2017-09-28T07:03:30.887Z,101063.40
2017-09-28T07:05:58.287Z,101062.05
2017-09-28T07:08:25.681Z,101073.06
2017-09-28T07:10:53.087Z,101069.24
2017-09-28T07:13:20.478Z,101070.12
2017-09-28T07:15:47.888Z,101069.83
2017-09-28T07:18:15.288Z,101071.47
2017-09-28T07:20:42.675Z,101068.95
2017-09-28T07:23:10.091Z,101067.14
2017-09-28T07:25:37.488Z,101068.86
2017-09-28T07:28:04.891Z,101070.02
2017-09-28T07:30:32.283Z,101066.95
2017-09-28T07:32:59.695Z,101068.43
2017-09-28T07:35:27.090Z,101071.58
2017-09-28T07:37:54.489Z,101068.28
2017-09-28T07:40:21.895Z,101066.90
2017-09-28T07:42:49.290Z,101072.39
2017-09-28T07:45:16.703Z,101067.78
2017-09-28T07:47:44.098Z,101054.16
2017-09-28T07:50:11.513Z,101059.23
2017-09-28T07:52:38.906Z,101059.38
2017-09-28T07:55:06.304Z,101063.90
2017-09-28T07:57:33.703Z,101077.84
2017-09-28T08:00:01.099Z,101076.22
2017-09-28T08:02:28.502Z,101078.05
2017-09-28T08:04:55.895Z,101083.75
2017-09-28T08:07:23.310Z,101077.44
2017-09-28T08:09:50.707Z,101079.53
2017-09-28T08:12:18.102Z,101086.31
2017-09-28T08:14:45.506Z,101082.39
2017-09-28T08:17:12.904Z,101078.50
2017-09-28T08:19:40.310Z,101080.91
2017-09-28T08:22:07.710Z,101085.89
2017-09-28T08:24:35.110Z,101088.78
2017-09-28T08:27:02.509Z,101084.75
2017-09-28T08:29:29.918Z,101087.56
2017-09-28T08:31:57.320Z,101092.02
2017-09-28T08:34:24.719Z,101096.42
2017-09-28T08:36:52.139Z,101091.53
2017-09-28T08:39:19.538Z,101093.92
2017-09-28T08:41:46.934Z,101083.70
2017-09-28T08:44:14.347Z,101084.67
2017-09-28T08:46:41.743Z,101084.92
2017-09-28T08:49:09.151Z,101079.39
2017-09-28T08:51:36.550Z,101085.82
2017-09-28T08:54:03.962Z,101087.70
2017-09-28T08:56:31.350Z,101090.56
2017-09-28T08:58:58.774Z,101098.04
2017-09-28T09:01:26.170Z,101098.56
2017-09-28T09:03:53.567Z,101092.36
2017-09-28T09:06:20.983Z,101095.63
2017-09-28T09:08:48.363Z,101085.38
2017-09-28T09:11:15.763Z,101085.88
2017-09-28T09:13:43.164Z,101085.19
2017-09-28T09:16:10.582Z,101083.34
2017-09-28T09:18:37.980Z,101092.13
2017-09-28T09:21:05.375Z,101082.62
2017-09-28T09:23:32.775Z,101088.27
2017-09-28T09:26:00.166Z,101078.31
2017-09-28T09:28:27.565Z,101076.89
2017-09-28T09:30:54.962Z,101075.16
2017-09-28T09:33:22.354Z,101073.00
2017-09-28T09:35:49.755Z,101069.53
2017-09-28T09:38:17.154Z,101071.69
2017-09-28T09:40:44.567Z,101067.91
2017-09-28T09:43:11.979Z,101069.74
2017-09-28T09:45:39.369Z,101080.63
2017-09-28T09:48:06.770Z,101079.23
2017-09-28T09:50:34.181Z,101080.13
2017-09-28T09:53:01.583Z,101077.59
2017-09-28T09:55:28.979Z,101069.98
2017-09-28T09:57:56.382Z,101065.00
2017-09-28T10:00:23.781Z,101065.77
2017-09-28T10:02:51.192Z,101067.75
2017-09-28T10:05:18.586Z,101074.19
2017-09-28T10:07:47.919Z,101068.48
2017-09-28T10:10:22.194Z,101067.98
2017-09-28T10:12:56.187Z,101068.25
2017-09-28T10:15:37.078Z,101074.41
2017-09-28T10:18:04.479Z,101068.88
2017-09-28T10:20:31.886Z,101074.19
2017-09-28T10:22:59.282Z,101079.89
2017-09-28T10:25:26.691Z,101069.30
2017-09-28T10:27:54.090Z,101072.56
2017-09-28T10:30:21.546Z,101075.97
2017-09-28T10:32:48.956Z,101076.48
2017-09-28T10:35:16.366Z,101077.98
2017-09-28T10:37:43.784Z,101077.83
2017-09-28T10:40:11.174Z,101085.64
2017-09-28T10:42:38.578Z,101088.88
2017-09-28T10:45:05.980Z,101083.84
2017-09-28T10:47:33.392Z,101092.67
2017-09-28T10:50:00.800Z,101092.67
2017-09-28T10:52:28.187Z,101095.94
2017-09-28T10:54:55.591Z,101092.27
2017-09-28T10:57:22.997Z,101098.92
2017-09-28T10:59:50.400Z,101104.75
2017-09-28T11:02:17.794Z,101096.71
2017-09-28T11:04:45.200Z,101102.16
2017-09-28T11:07:12.602Z,101102.02
2017-09-28T11:09:40.348Z,101099.44
2017-09-28T11:12:07.763Z,101099.72
2017-09-28T11:14:35.159Z,101099.69
2017-09-28T11:17:02.559Z,101105.80
2017-09-28T11:19:29.959Z,101110.70
2017-09-28T11:21:57.363Z,101109.62
2017-09-28T11:24:24.755Z,101104.45
2017-09-28T11:26:52.156Z,101103.39
2017-09-28T11:29:19.554Z,101103.42
2017-09-28T11:31:46.955Z,101107.23
2017-09-28T11:34:14.372Z,101103.33
2017-09-28T11:36:41.766Z,101104.48
2017-09-28T11:39:09.174Z,101101.92
2017-09-28T11:41:36.570Z,101100.30
2017-09-28T11:44:03.966Z,101095.11
2017-09-28T11:46:31.364Z,101091.97
2017-09-28T11:48:58.782Z,101094.99
2017-09-28T11:51:26.182Z,101097.42
2017-09-28T11:53:53.577Z,101091.83
2017-09-28T11:56:20.989Z,101090.67
2017-09-28T11:58:48.379Z,101085.63
2017-09-28T12:01:15.778Z,101086.56
2017-09-28T12:03:43.179Z,101081.76
2017-09-28T12:06:10.576Z,101077.48
2017-09-28T12:08:37.974Z,101065.19
2017-09-28T12:11:05.369Z,101055.03
2017-09-28T12:13:32.775Z,101044.05
2017-09-28T12:16:00.173Z,101036.69
2017-09-28T12:18:27.566Z,101028.53
2017-09-28T12:20:54.970Z,101046.36
2017-09-28T12:23:22.363Z,101056.98
2017-09-28T12:25:49.786Z,101058.41
2017-09-28T12:28:17.182Z,101059.42
2017-09-28T12:30:44.591Z,101060.95
2017-09-28T12:33:11.991Z,101056.49
2017-09-28T12:35:39.387Z,101051.09
2017-09-28T12:38:06.787Z,101056.56
2017-09-28T12:40:34.192Z,101050.18
2017-09-28T12:43:01.592Z,101052.69
2017-09-28T12:45:28.988Z,101045.61
2017-09-28T12:47:56.418Z,101043.59
2017-09-28T12:50:23.802Z,101046.84
2017-09-28T12:52:51.199Z,101049.15
2017-09-28T12:55:18.615Z,101049.55
2017-09-28T12:57:46.019Z,101047.26
2017-09-28T13:00:13.418Z,101044.91
2017-09-28T13:02:40.809Z,101051.00
2017-09-28T13:05:08.415Z,101053.27
2017-09-28T13:07:35.811Z,101054.88
2017-09-28T13:10:03.207Z,101048.18
2017-09-28T13:12:30.614Z,101048.03
2017-09-28T13:14:58.019Z,101052.71
2017-09-28T13:17:25.432Z,101048.38
2017-09-28T13:19:52.826Z,101049.50
2017-09-28T13:22:20.235Z,101048.01
2017-09-28T13:24:47.631Z,101045.17
2017-09-28T13:27:15.023Z,101047.48
2017-09-28T13:29:42.423Z,101052.34
2017-09-28T13:32:09.824Z,101057.11
2017-09-28T13:34:37.231Z,101056.28
2017-09-28T13:37:04.626Z,101052.32
2017-09-28T13:39:32.034Z,101048.73
2017-09-28T13:41:59.434Z,101046.10
2017-09-28T13:44:26.835Z,101047.20
2017-09-28T13:46:54.240Z,101045.66
2017-09-28T13:49:21.635Z,101044.25
2017-09-28T13:51:49.043Z,101038.49
2017-09-28T13:54:16.438Z,101044.31
2017-09-28T13:56:43.846Z,101041.43
2017-09-28T13:59:11.238Z,101044.42
2017-09-28T14:01:38.636Z,101037.13
2017-09-28T14:04:06.035Z,101039.28
2017-09-28T14:06:33.430Z,101038.86
2017-09-28T14:09:00.830Z,101039.27
2017-09-28T14:11:28.222Z,101031.62
2017-09-28T14:13:55.634Z,101034.09
2017-09-28T14:16:23.030Z,101033.78
2017-09-28T14:18:50.426Z,101031.58
2017-09-28T14:21:17.830Z,101028.96
2017-09-28T14:23:45.234Z,101027.76
2017-09-28T14:26:12.631Z,101027.59
2017-09-28T14:28:40.022Z,101028.23
2017-09-28T14:31:07.430Z,101029.38
2017-09-28T14:33:34.827Z,101022.77
2017-09-28T14:36:02.232Z,101026.37
2017-09-28T14:38:29.635Z,101024.73
2017-09-28T14:40:57.035Z,101017.66
2017-09-28T14:43:24.448Z,101024.28
2017-09-28T14:45:51.853Z,101030.42
2017-09-28T14:48:19.275Z,101021.87
2017-09-28T14:50:46.671Z,101025.05
2017-09-28T14:53:14.083Z,101020.33
2017-09-28T14:55:41.493Z,101019.95
2017-09-28T14:58:08.891Z,101018.47
2017-09-28T15:00:36.290Z,101019.75
2017-09-28T15:03:03.700Z,101017.05
2017-09-28T15:05:31.094Z,101018.47
2017-09-28T15:07:58.485Z,101014.13
2017-09-28T15:10:25.886Z,101016.48
2017-09-28T15:12:53.278Z,101019.47
2017-09-28T15:15:20.686Z,101018.39
2017-09-28T15:17:48.083Z,101020.58
2017-09-28T15:20:15.483Z,101013.40
2017-09-28T15:22:42.897Z,101017.47
2017-09-28T15:25:10.291Z,101015.03
2017-09-28T15:27:37.696Z,101014.76
2017-09-28T15:30:12.938Z,101012.53
2017-09-28T15:32:40.347Z,101013.20
2017-09-28T15:35:18.327Z,101013.59
2017-09-28T15:37:45.705Z,101010.73
2017-09-28T15:40:13.103Z,101014.95
2017-09-28T15:42:40.498Z,101016.14
2017-09-28T15:45:07.935Z,101010.98
2017-09-28T15:47:35.338Z,101018.72
2017-09-28T15:50:02.778Z,101010.15
2017-09-28T15:52:30.171Z,101011.38
2017-09-28T15:54:57.583Z,101014.78
2017-09-28T15:57:24.977Z,101022.27
2017-09-28T15:59:52.377Z,101023.09
2017-09-28T16:02:19.776Z,101024.72
2017-09-28T16:04:47.171Z,101024.17
2017-09-28T16:07:14.574Z,101026.33
2017-09-28T16:09:41.966Z,101019.53
2017-09-28T16:12:09.398Z,101025.66
2017-09-28T16:14:36.786Z,101023.47
2017-09-28T16:17:04.179Z,101027.00
2017-09-28T16:19:31.700Z,101025.38
2017-09-28T16:21:59.091Z,101035.56
2017-09-28T16:24:26.494Z,101037.05
2017-09-28T16:26:53.919Z,101030.67
2017-09-28T16:29:21.330Z,101032.55
2017-09-28T16:31:48.738Z,101033.95
2017-09-28T16:34:16.139Z,101032.03
2017-09-28T16:36:43.539Z,101027.52
2017-09-28T16:39:10.937Z,101025.19
2017-09-28T16:41:44.158Z,101028.70
2017-09-28T16:44:11.558Z,101030.16
2017-09-28T16:46:38.962Z,101031.09
2017-09-28T16:49:06.361Z,101029.41
2017-09-28T16:51:33.767Z,101028.84
2017-09-28T16:54:01.195Z,101040.36
2017-09-28T16:56:28.626Z,101035.85
2017-09-28T16:58:56.027Z,101043.31
2017-09-28T17:01:23.422Z,101037.58
2017-09-28T17:03:50.863Z,101039.59
2017-09-28T17:06:18.258Z,101044.45
2017-09-28T17:08:45.667Z,101044.52
2017-09-28T17:11:13.067Z,101043.41
2017-09-28T17:13:40.468Z,101049.20
2017-09-28T17:16:07.867Z,101050.92
2017-09-28T17:18:35.260Z,101046.00
2017-09-28T17:21:02.671Z,101046.98
2017-09-28T17:23:30.066Z,101041.39
2017-09-28T17:25:57.475Z,101048.50
2017-09-28T17:28:24.878Z,101049.96
2017-09-28T17:30:52.273Z,101050.87
2017-09-28T17:33:19.678Z,101052.85
2017-09-28T17:35:47.074Z,101053.72
2017-09-28T17:38:14.480Z,101052.37
2017-09-28T17:40:41.902Z,101052.85
2017-09-28T17:43:09.302Z,101054.31
2017-09-28T17:45:36.800Z,101056.64
2017-09-28T17:48:04.867Z,101060.29
2017-09-28T17:50:32.363Z,101062.44
2017-09-28T17:53:00.702Z,101063.94
2017-09-28T17:55:28.109Z,101061.23
2017-09-28T17:57:55.498Z,101066.92
2017-09-28T18:00:23.344Z,101066.55
2017-09-28T18:02:50.852Z,101065.57
2017-09-28T18:05:18.281Z,101069.18
2017-09-28T18:07:45.720Z,101064.17
2017-09-28T18:10:13.151Z,101063.66
2017-09-28T18:12:40.572Z,101067.17
2017-09-28T18:15:08.824Z,101065.95
2017-09-28T18:17:36.256Z,101063.66
2017-09-28T18:20:03.682Z,101069.15
2017-09-28T18:22:31.139Z,101072.77
2017-09-28T18:24:58.558Z,101066.92
2017-09-28T18:27:25.992Z,101074.91
2017-09-28T18:29:53.400Z,101076.13
2017-09-28T18:32:20.801Z,101078.28
2017-09-28T18:34:48.291Z,101076.03
2017-09-28T18:37:15.703Z,101073.80
2017-09-28T18:39:43.169Z,101078.95
2017-09-28T18:42:11.143Z,101076.52
2017-09-28T18:44:38.549Z,101071.61
2017-09-28T18:47:06.016Z,101088.63
2017-09-28T18:49:33.459Z,101111.33
2017-09-28T18:52:00.919Z,101111.24
2017-09-28T18:54:28.343Z,101113.11
2017-09-28T18:56:55.761Z,101124.05
2017-09-28T18:59:23.155Z,101129.27
2017-09-28T19:01:50.570Z,101129.48
2017-09-28T19:04:17.965Z,101133.02
2017-09-28T19:06:45.375Z,101134.49
2017-09-28T19:09:12.786Z,101134.91
2017-09-28T19:11:40.246Z,101133.31
2017-09-28T19:14:07.655Z,101131.74
2017-09-28T19:16:35.054Z,101136.27
2017-09-28T19:19:02.494Z,101123.41
2017-09-28T19:21:29.890Z,101127.83
2017-09-28T19:23:57.295Z,101123.00
2017-09-28T19:26:24.691Z,101125.98
2017-09-28T19:28:52.098Z,101114.84
2017-09-28T19:31:19.500Z,101116.44
2017-09-28T19:33:46.919Z,101119.58
2017-09-28T19:36:14.306Z,101124.78
2017-09-28T19:38:41.703Z,101121.56
2017-09-28T19:41:09.106Z,101125.71
2017-09-28T19:43:36.503Z,101129.27
2017-09-28T19:46:04.887Z,101123.35
2017-09-28T19:48:32.284Z,101120.49
2017-09-28T19:50:59.682Z,101119.42
2017-09-28T19:53:27.094Z,101125.64
2017-09-28T19:55:54.491Z,101120.00
2017-09-28T19:58:21.887Z,101125.33
2017-09-28T20:00:49.286Z,101121.06
2017-09-28T20:03:16.694Z,101120.93
2017-09-28T20:05:44.095Z,101115.34
2017-09-28T20:08:11.492Z,101120.73
2017-09-28T20:10:38.886Z,101126.13
2017-09-28T20:13:06.287Z,101119.70
2017-09-28T20:15:33.682Z,101126.31
2017-09-28T20:18:01.098Z,101127.86
2017-09-28T20:20:28.491Z,101124.23
2017-09-28T20:22:55.882Z,101121.89
2017-09-28T20:25:23.291Z,101121.17
2017-09-28T20:27:50.683Z,101120.05
2017-09-28T20:30:18.084Z,101117.70
2017-09-28T20:32:45.475Z,101116.06
2017-09-28T20:35:12.878Z,101115.66
2017-09-28T20:37:40.275Z,101118.13
2017-09-28T20:40:07.675Z,101118.77
2017-09-28T20:42:35.075Z,101116.29
2017-09-28T20:45:02.480Z,101105.52
2017-09-28T20:47:29.887Z,101110.74
2017-09-28T20:49:57.284Z,101112.59
2017-09-28T20:52:24.678Z,101109.05
2017-09-28T20:54:52.078Z,101105.94
2017-09-28T20:57:19.483Z,101108.28
2017-09-28T20:59:46.886Z,101111.39
2017-09-28T21:02:14.283Z,101107.43
2017-09-28T21:04:41.686Z,101100.23
2017-09-28T21:07:09.093Z,101109.06
2017-09-28T21:09:36.483Z,101108.36
2017-09-28T21:12:04.438Z,101104.98
2017-09-28T21:14:31.835Z,101108.05
2017-09-28T21:16:59.236Z,101100.88
2017-09-28T21:19:26.642Z,101098.25
2017-09-28T21:21:54.049Z,101103.72
2017-09-28T21:24:21.442Z,101103.08
2017-09-28T21:26:48.839Z,101103.02
2017-09-28T21:29:16.267Z,101097.63
2017-09-28T21:31:43.667Z,101103.86
2017-09-28T21:34:11.072Z,101105.57
2017-09-28T21:36:38.462Z,101105.00
2017-09-28T21:39:05.871Z,101096.45
2017-09-28T21:41:33.273Z,101097.48
2017-09-28T21:44:00.658Z,101098.96
2017-09-28T21:46:28.066Z,101103.62
2017-09-28T21:48:55.470Z,101102.63
2017-09-28T21:51:22.870Z,101103.56
2017-09-28T21:53:50.271Z,101096.30
2017-09-28T21:56:17.680Z,101099.45
2017-09-28T21:58:45.075Z,101102.92
2017-09-28T22:01:12.531Z,101094.19
2017-09-28T22:03:39.938Z,101095.80
2017-09-28T22:06:07.335Z,101098.08
2017-09-28T22:08:34.738Z,101101.97
2017-09-28T22:11:02.131Z,101095.29
2017-09-28T22:13:29.534Z,101096.99
2017-09-28T22:15:56.930Z,101099.91
2017-09-28T22:18:24.350Z,101101.91
2017-09-28T22:20:51.747Z,101099.98
2017-09-28T22:23:19.152Z,101105.38
2017-09-28T22:25:46.555Z,101100.40
2017-09-28T22:28:13.955Z,101105.44
2017-09-28T22:30:41.363Z,101108.49
2017-09-28T22:33:08.762Z,101099.50
2017-09-28T22:35:36.176Z,101101.00
2017-09-28T22:38:03.585Z,101099.59
2017-09-28T22:40:30.987Z,101098.53
2017-09-28T22:42:58.387Z,101095.31
2017-09-28T22:45:25.793Z,101093.89
2017-09-28T22:47:53.192Z,101092.61
2017-09-28T22:50:20.591Z,101094.89
2017-09-28T22:52:47.999Z,101086.38
2017-09-28T22:55:15.391Z,101085.59
2017-09-28T22:57:42.827Z,101082.80
2017-09-28T23:00:10.228Z,101085.89
2017-09-28T23:02:37.623Z,101081.03
2017-09-28T23:05:05.036Z,101086.66
2017-09-28T23:07:32.462Z,101086.08
2017-09-28T23:09:59.864Z,101087.89
2017-09-28T23:12:27.251Z,101101.85
2017-09-28T23:14:54.648Z,101092.70
2017-09-28T23:17:22.051Z,101084.93
2017-09-28T23:19:49.450Z,101089.56
2017-09-28T23:22:16.853Z,101089.18
2017-09-28T23:24:44.256Z,101096.31
2017-09-28T23:27:11.663Z,101091.68
2017-09-28T23:29:39.063Z,101084.67
2017-09-28T23:32:06.461Z,101081.17
2017-09-28T23:34:33.858Z,101080.88
2017-09-28T23:37:01.258Z,101076.00
2017-09-28T23:39:28.663Z,101081.75
2017-09-28T23:41:56.058Z,101076.83
2017-09-28T23:44:23.473Z,101075.71
2017-09-28T23:46:50.861Z,101071.17
2017-09-28T23:49:18.263Z,101073.00
2017-09-28T23:51:45.655Z,101076.34
2017-09-28T23:54:13.051Z,101071.36
2017-09-28T23:56:40.452Z,101072.66
2017-09-28T23:59:07.851Z,101079.62
